Whale Cove, Canada
Current Conditions -  °F | °C
As of 10:00 PM on Monday 22 Dec 2014 (Local Time) from CYRT Reporting Station
Broken Clouds Broken Clouds  
Wind Chill: -29°   Ceiling: 3000
Heat Index: -9°   Visibility: 15mi
Dew Point: -15°   Wind: 12mph
Humidity: 77%   Direction: 340°NNW
Pressure: 30.17"   Gusts: NA
Location:  62.17°N, 92.58°W
Report Text: CYRT 230400Z 34010KT 15SM BKN030 M23/M26 A3017 RMK SC5 SLP221
Loading
Personal Weather Stations






























Interactive Weather Map New forecast layout! Learn more

10-Day Weather Forecast

Advertisements
Track Severe Weather on mobile